sensor_id;sensor_type;location;lat;lon;timestamp;pressure;altitude;pressure_sealevel;temperature;humidity
49611;BME280;35515;48.766;9.176;2022-11-18T00:00:24;96559.06;;;9.16;99.30
49611;BME280;35515;48.766;9.176;2022-11-18T00:02:50;96555.81;;;9.14;99.95
49611;BME280;35515;48.766;9.176;2022-11-18T00:05:17;96555.03;;;9.02;98.82
49611;BME280;35515;48.766;9.176;2022-11-18T00:07:43;96561.41;;;8.96;100.00
49611;BME280;35515;48.766;9.176;2022-11-18T00:10:11;96563.88;;;8.97;100.00
49611;BME280;35515;48.766;9.176;2022-11-18T00:12:38;96556.72;;;8.91;100.00
49611;BME280;35515;48.766;9.176;2022-11-18T00:15:22;96557.63;;;8.97;100.00
49611;BME280;35515;48.766;9.176;2022-11-18T00:17:49;96555.19;;;8.95;100.00
49611;BME280;35515;48.766;9.176;2022-11-18T00:20:18;96562.13;;;8.91;100.00
49611;BME280;35515;48.766;9.176;2022-11-18T00:22:45;96557.06;;;8.95;100.00
49611;BME280;35515;48.766;9.176;2022-11-18T00:25:13;96552.44;;;8.78;100.00
49611;BME280;35515;48.766;9.176;2022-11-18T00:27:39;96549.81;;;8.83;100.00
49611;BME280;35515;48.766;9.176;2022-11-18T00:30:07;96544.34;;;8.78;100.00
49611;BME280;35515;48.766;9.176;2022-11-18T00:32:34;96550.03;;;8.94;100.00
49611;BME280;35515;48.766;9.176;2022-11-18T00:35:00;96555.22;;;9.12;100.00
49611;BME280;35515;48.766;9.176;2022-11-18T00:37:27;96558.50;;;9.31;100.00
49611;BME280;35515;48.766;9.176;2022-11-18T00:39:54;96556.84;;;9.13;100.00
49611;BME280;35515;48.766;9.176;2022-11-18T00:42:22;96568.25;;;9.32;100.00
49611;BME280;35515;48.766;9.176;2022-11-18T00:45:06;96565.91;;;9.53;100.00
49611;BME280;35515;48.766;9.176;2022-11-18T00:47:33;96572.34;;;9.35;100.00
49611;BME280;35515;48.766;9.176;2022-11-18T00:49:59;96565.06;;;9.35;100.00
49611;BME280;35515;48.766;9.176;2022-11-18T00:52:26;96562.88;;;9.49;99.96
49611;BME280;35515;48.766;9.176;2022-11-18T00:54:52;96560.00;;;9.39;100.00
49611;BME280;35515;48.766;9.176;2022-11-18T00:57:19;96563.94;;;9.48;99.44
49611;BME280;35515;48.766;9.176;2022-11-18T00:59:47;96555.38;;;9.40;100.00
49611;BME280;35515;48.766;9.176;2022-11-18T01:02:13;96564.41;;;9.28;100.00
49611;BME280;35515;48.766;9.176;2022-11-18T01:04:40;96564.59;;;9.39;100.00
49611;BME280;35515;48.766;9.176;2022-11-18T01:07:06;96563.19;;;9.36;100.00
49611;BME280;35515;48.766;9.176;2022-11-18T01:09:33;96567.91;;;9.29;100.00
49611;BME280;35515;48.766;9.176;2022-11-18T01:11:59;96564.22;;;9.18;100.00
49611;BME280;35515;48.766;9.176;2022-11-18T01:14:44;96556.19;;;9.06;100.00
49611;BME280;35515;48.766;9.176;2022-11-18T01:17:12;96566.50;;;9.09;100.00
49611;BME280;35515;48.766;9.176;2022-11-18T01:19:38;96560.53;;;9.07;100.00
49611;BME280;35515;48.766;9.176;2022-11-18T01:22:05;96564.75;;;9.32;100.00
49611;BME280;35515;48.766;9.176;2022-11-18T01:24:32;96560.91;;;9.28;100.00
49611;BME280;35515;48.766;9.176;2022-11-18T01:27:00;96572.06;;;9.19;100.00
49611;BME280;35515;48.766;9.176;2022-11-18T01:29:26;96570.47;;;9.18;100.00
49611;BME280;35515;48.766;9.176;2022-11-18T01:31:53;96572.16;;;9.25;100.00
49611;BME280;35515;48.766;9.176;2022-11-18T01:34:21;96568.00;;;9.34;100.00
49611;BME280;35515;48.766;9.176;2022-11-18T01:36:47;96564.75;;;9.32;100.00
49611;BME280;35515;48.766;9.176;2022-11-18T01:39:21;96575.97;;;9.24;100.00
49611;BME280;35515;48.766;9.176;2022-11-18T01:41:47;96573.41;;;9.34;100.00
49611;BME280;35515;48.766;9.176;2022-11-18T01:47:18;96585.38;;;9.38;100.00
49611;BME280;35515;48.766;9.176;2022-11-18T01:49:46;96587.16;;;9.32;100.00
49611;BME280;35515;48.766;9.176;2022-11-18T01:52:13;96591.28;;;9.35;100.00
49611;BME280;35515;48.766;9.176;2022-11-18T01:54:43;96589.38;;;9.18;100.00
49611;BME280;35515;48.766;9.176;2022-11-18T01:57:12;96598.03;;;9.20;100.00
49611;BME280;35515;48.766;9.176;2022-11-18T01:59:43;96602.03;;;9.18;100.00
49611;BME280;35515;48.766;9.176;2022-11-18T02:02:13;96598.03;;;9.20;100.00
49611;BME280;35515;48.766;9.176;2022-11-18T02:04:43;96610.25;;;9.23;100.00
49611;BME280;35515;48.766;9.176;2022-11-18T02:07:14;96613.13;;;9.33;100.00
49611;BME280;35515;48.766;9.176;2022-11-18T02:09:42;96612.66;;;9.53;99.89
49611;BME280;35515;48.766;9.176;2022-11-18T02:12:09;96605.00;;;9.16;100.00
49611;BME280;35515;48.766;9.176;2022-11-18T02:14:38;96611.09;;;9.24;100.00
49611;BME280;35515;48.766;9.176;2022-11-18T02:17:12;96610.91;;;9.13;100.00
49611;BME280;35515;48.766;9.176;2022-11-18T02:25:55;96617.44;;;9.17;100.00
49611;BME280;35515;48.766;9.176;2022-11-18T02:28:34;96614.00;;;9.22;100.00
49611;BME280;35515;48.766;9.176;2022-11-18T02:31:06;96619.09;;;9.18;100.00
49611;BME280;35515;48.766;9.176;2022-11-18T02:33:38;96613.78;;;9.24;100.00
49611;BME280;35515;48.766;9.176;2022-11-18T02:36:12;96617.63;;;9.28;100.00
49611;BME280;35515;48.766;9.176;2022-11-18T02:38:43;96623.84;;;9.28;100.00
49611;BME280;35515;48.766;9.176;2022-11-18T02:41:13;96626.22;;;9.25;100.00
49611;BME280;35515;48.766;9.176;2022-11-18T02:43:44;96635.31;;;9.18;100.00
49611;BME280;35515;48.766;9.176;2022-11-18T02:46:16;96633.56;;;9.12;100.00
49611;BME280;35515;48.766;9.176;2022-11-18T02:48:45;96626.59;;;9.16;100.00
49611;BME280;35515;48.766;9.176;2022-11-18T02:51:15;96624.72;;;9.17;100.00
49611;BME280;35515;48.766;9.176;2022-11-18T02:53:44;96628.75;;;9.14;100.00
49611;BME280;35515;48.766;9.176;2022-11-18T02:56:14;96623.38;;;9.02;100.00
49611;BME280;35515;48.766;9.176;2022-11-18T02:58:43;96630.72;;;9.19;100.00
49611;BME280;35515;48.766;9.176;2022-11-18T03:01:15;96632.56;;;9.30;100.00
49611;BME280;35515;48.766;9.176;2022-11-18T03:03:43;96639.81;;;9.30;100.00
49611;BME280;35515;48.766;9.176;2022-11-18T03:06:17;96649.22;;;9.27;100.00
49611;BME280;35515;48.766;9.176;2022-11-18T03:08:51;96655.31;;;9.34;100.00
49611;BME280;35515;48.766;9.176;2022-11-18T03:11:22;96657.25;;;9.22;100.00
49611;BME280;35515;48.766;9.176;2022-11-18T03:14:05;96659.03;;;9.16;100.00
49611;BME280;35515;48.766;9.176;2022-11-18T03:16:38;96658.50;;;9.02;100.00
49611;BME280;35515;48.766;9.176;2022-11-18T03:19:08;96669.63;;;9.06;100.00
49611;BME280;35515;48.766;9.176;2022-11-18T03:21:41;96671.75;;;9.04;100.00
49611;BME280;35515;48.766;9.176;2022-11-18T03:24:13;96677.84;;;9.11;100.00
49611;BME280;35515;48.766;9.176;2022-11-18T03:26:46;96675.72;;;9.13;100.00
49611;BME280;35515;48.766;9.176;2022-11-18T03:29:17;96677.84;;;9.11;100.00
49611;BME280;35515;48.766;9.176;2022-11-18T03:31:49;96680.91;;;9.03;100.00
49611;BME280;35515;48.766;9.176;2022-11-18T03:34:20;96687.97;;;9.04;100.00
49611;BME280;35515;48.766;9.176;2022-11-18T03:36:52;96699.22;;;9.01;100.00
49611;BME280;35515;48.766;9.176;2022-11-18T03:39:23;96701.47;;;9.04;100.00
49611;BME280;35515;48.766;9.176;2022-11-18T03:41:54;96709.09;;;9.07;100.00
49611;BME280;35515;48.766;9.176;2022-11-18T03:44:27;96717.19;;;9.07;100.00
49611;BME280;35515;48.766;9.176;2022-11-18T03:47:03;96721.56;;;9.08;100.00
49611;BME280;35515;48.766;9.176;2022-11-18T03:49:35;96724.75;;;9.05;100.00
49611;BME280;35515;48.766;9.176;2022-11-18T03:52:06;96732.00;;;9.04;100.00
49611;BME280;35515;48.766;9.176;2022-11-18T03:54:36;96730.97;;;8.94;100.00
49611;BME280;35515;48.766;9.176;2022-11-18T03:57:09;96729.69;;;8.84;100.00
49611;BME280;35515;48.766;9.176;2022-11-18T03:59:41;96738.28;;;8.81;100.00
49611;BME280;35515;48.766;9.176;2022-11-18T04:02:12;96731.91;;;8.87;100.00
49611;BME280;35515;48.766;9.176;2022-11-18T04:04:41;96738.72;;;8.78;100.00
49611;BME280;35515;48.766;9.176;2022-11-18T04:07:15;96738.53;;;8.68;100.00
49611;BME280;35515;48.766;9.176;2022-11-18T04:09:49;96742.03;;;8.57;100.00
49611;BME280;35515;48.766;9.176;2022-11-18T04:12:18;96745.91;;;8.61;100.00
49611;BME280;35515;48.766;9.176;2022-11-18T04:14:47;96744.63;;;8.51;100.00
49611;BME280;35515;48.766;9.176;2022-11-18T04:17:22;96749.22;;;8.63;100.00
49611;BME280;35515;48.766;9.176;2022-11-18T04:19:51;96745.59;;;8.69;100.00
49611;BME280;35515;48.766;9.176;2022-11-18T04:22:18;96748.03;;;8.70;100.00
49611;BME280;35515;48.766;9.176;2022-11-18T04:24:45;96756.13;;;8.82;100.00
49611;BME280;35515;48.766;9.176;2022-11-18T04:27:12;96748.25;;;8.81;100.00
49611;BME280;35515;48.766;9.176;2022-11-18T04:29:38;96760.47;;;8.72;100.00
49611;BME280;35515;48.766;9.176;2022-11-18T04:32:05;96769.03;;;8.57;100.00
49611;BME280;35515;48.766;9.176;2022-11-18T04:34:33;96780.19;;;8.48;100.00
49611;BME280;35515;48.766;9.176;2022-11-18T04:37:00;96775.28;;;8.57;100.00
49611;BME280;35515;48.766;9.176;2022-11-18T04:39:27;96778.53;;;8.71;100.00
49611;BME280;35515;48.766;9.176;2022-11-18T04:41:53;96783.81;;;8.66;100.00
49611;BME280;35515;48.766;9.176;2022-11-18T04:44:24;96776.31;;;8.68;100.00
49611;BME280;35515;48.766;9.176;2022-11-18T04:46:51;96778.31;;;8.73;100.00
49611;BME280;35515;48.766;9.176;2022-11-18T04:49:19;96777.03;;;8.75;100.00
49611;BME280;35515;48.766;9.176;2022-11-18T04:51:47;96774.66;;;8.91;100.00
49611;BME280;35515;48.766;9.176;2022-11-18T04:54:14;96767.25;;;8.74;100.00
49611;BME280;35515;48.766;9.176;2022-11-18T04:56:42;96768.91;;;8.75;100.00
49611;BME280;35515;48.766;9.176;2022-11-18T04:59:09;96770.69;;;8.81;100.00
49611;BME280;35515;48.766;9.176;2022-11-18T05:01:36;96782.28;;;8.82;100.00
49611;BME280;35515;48.766;9.176;2022-11-18T05:04:04;96779.59;;;8.94;100.00
49611;BME280;35515;48.766;9.176;2022-11-18T05:06:32;96785.00;;;8.94;100.00
49611;BME280;35515;48.766;9.176;2022-11-18T05:09:00;96782.66;;;8.85;100.00
49611;BME280;35515;48.766;9.176;2022-11-18T05:11:27;96785.84;;;8.70;100.00
49611;BME280;35515;48.766;9.176;2022-11-18T05:14:12;96785.22;;;8.57;100.00
49611;BME280;35515;48.766;9.176;2022-11-18T05:16:39;96784.19;;;8.81;100.00
49611;BME280;35515;48.766;9.176;2022-11-18T05:19:05;96787.56;;;8.65;100.00
49611;BME280;35515;48.766;9.176;2022-11-18T05:21:32;96787.47;;;8.60;100.00
49611;BME280;35515;48.766;9.176;2022-11-18T05:24:00;96797.94;;;8.68;99.27
49611;BME280;35515;48.766;9.176;2022-11-18T05:26:27;96797.69;;;8.81;98.95
49611;BME280;35515;48.766;9.176;2022-11-18T05:28:54;96806.03;;;8.56;100.00
49611;BME280;35515;48.766;9.176;2022-11-18T05:31:21;96800.84;;;8.55;100.00
49611;BME280;35515;48.766;9.176;2022-11-18T05:33:47;96792.41;;;8.63;99.75
49611;BME280;35515;48.766;9.176;2022-11-18T05:36:16;96811.66;;;8.66;99.79
49611;BME280;35515;48.766;9.176;2022-11-18T05:38:43;96807.66;;;8.45;100.00
49611;BME280;35515;48.766;9.176;2022-11-18T05:41:11;96810.25;;;8.52;100.00
49611;BME280;35515;48.766;9.176;2022-11-18T05:43:59;96810.94;;;8.59;100.00
49611;BME280;35515;48.766;9.176;2022-11-18T05:46:24;96816.34;;;8.71;98.88
49611;BME280;35515;48.766;9.176;2022-11-18T05:48:51;96818.56;;;8.74;98.90
49611;BME280;35515;48.766;9.176;2022-11-18T05:51:18;96822.09;;;8.63;99.37
49611;BME280;35515;48.766;9.176;2022-11-18T05:53:45;96826.88;;;8.49;100.00
49611;BME280;35515;48.766;9.176;2022-11-18T05:56:18;96830.78;;;8.65;98.98
49611;BME280;35515;48.766;9.176;2022-11-18T05:58:46;96826.78;;;8.56;100.00
49611;BME280;35515;48.766;9.176;2022-11-18T06:01:15;96828.66;;;8.55;99.59
49611;BME280;35515;48.766;9.176;2022-11-18T06:03:43;96834.00;;;8.43;100.00
49611;BME280;35515;48.766;9.176;2022-11-18T06:06:12;96827.56;;;8.44;100.00
49611;BME280;35515;48.766;9.176;2022-11-18T06:08:44;96837.34;;;8.45;99.99
49611;BME280;35515;48.766;9.176;2022-11-18T06:11:16;96835.13;;;8.24;100.00
49611;BME280;35515;48.766;9.176;2022-11-18T06:13:47;96841.84;;;8.33;100.00
49611;BME280;35515;48.766;9.176;2022-11-18T06:16:18;96837.03;;;8.35;100.00
49611;BME280;35515;48.766;9.176;2022-11-18T06:18:47;96847.13;;;8.28;100.00
49611;BME280;35515;48.766;9.176;2022-11-18T06:21:13;96845.44;;;8.15;100.00
49611;BME280;35515;48.766;9.176;2022-11-18T06:23:41;96848.41;;;8.25;100.00
49611;BME280;35515;48.766;9.176;2022-11-18T06:26:08;96857.44;;;8.31;100.00
49611;BME280;35515;48.766;9.176;2022-11-18T06:28:38;96853.25;;;8.35;100.00
49611;BME280;35515;48.766;9.176;2022-11-18T06:31:05;96859.66;;;8.22;100.00
49611;BME280;35515;48.766;9.176;2022-11-18T06:33:32;96858.16;;;8.38;100.00
49611;BME280;35515;48.766;9.176;2022-11-18T06:35:58;96865.69;;;8.36;100.00
49611;BME280;35515;48.766;9.176;2022-11-18T06:38:25;96863.56;;;8.38;100.00
49611;BME280;35515;48.766;9.176;2022-11-18T06:40:51;96865.22;;;8.39;100.00
49611;BME280;35515;48.766;9.176;2022-11-18T06:43:18;96873.44;;;8.44;100.00
49611;BME280;35515;48.766;9.176;2022-11-18T06:46:05;96868.34;;;8.55;99.33
49611;BME280;35515;48.766;9.176;2022-11-18T06:48:50;96879.69;;;8.57;98.63
49611;BME280;35515;48.766;9.176;2022-11-18T06:51:17;96874.81;;;8.65;97.01
49611;BME280;35515;48.766;9.176;2022-11-18T06:53:44;96870.44;;;8.64;97.29
49611;BME280;35515;48.766;9.176;2022-11-18T06:56:20;96884.69;;;8.41;99.55
49611;BME280;35515;48.766;9.176;2022-11-18T06:58:52;96885.16;;;8.38;100.00
49611;BME280;35515;48.766;9.176;2022-11-18T07:01:22;96895.69;;;8.28;100.00
49611;BME280;35515;48.766;9.176;2022-11-18T07:03:49;96884.50;;;8.12;100.00
49611;BME280;35515;48.766;9.176;2022-11-18T07:06:17;96899.34;;;8.33;100.00
49611;BME280;35515;48.766;9.176;2022-11-18T07:08:44;96904.16;;;8.43;100.00
49611;BME280;35515;48.766;9.176;2022-11-18T07:11:13;96900.50;;;8.68;98.89
49611;BME280;35515;48.766;9.176;2022-11-18T07:13:40;96914.97;;;8.43;98.71
49611;BME280;35515;48.766;9.176;2022-11-18T07:16:08;96902.63;;;8.35;100.00
49611;BME280;35515;48.766;9.176;2022-11-18T07:18:37;96916.63;;;8.44;99.99
49611;BME280;35515;48.766;9.176;2022-11-18T07:21:07;96919.84;;;8.53;98.24
49611;BME280;35515;48.766;9.176;2022-11-18T07:23:35;96923.28;;;8.42;100.00
49611;BME280;35515;48.766;9.176;2022-11-18T07:26:03;96922.81;;;8.45;100.00
49611;BME280;35515;48.766;9.176;2022-11-18T07:28:30;96928.41;;;8.50;100.00
49611;BME280;35515;48.766;9.176;2022-11-18T07:31:00;96932.16;;;8.61;99.53
49611;BME280;35515;48.766;9.176;2022-11-18T07:33:28;96933.69;;;8.57;99.60
49611;BME280;35515;48.766;9.176;2022-11-18T07:35:59;96941.94;;;8.43;100.00
49611;BME280;35515;48.766;9.176;2022-11-18T07:38:26;96941.94;;;8.43;100.00
49611;BME280;35515;48.766;9.176;2022-11-18T07:40:52;96935.63;;;8.68;98.25
49611;BME280;35515;48.766;9.176;2022-11-18T07:43:19;96941.34;;;8.60;99.59
49611;BME280;35515;48.766;9.176;2022-11-18T07:45:46;96944.41;;;8.45;100.00
49611;BME280;35515;48.766;9.176;2022-11-18T07:48:12;96946.13;;;8.58;100.00
49611;BME280;35515;48.766;9.176;2022-11-18T07:50:39;96946.72;;;8.48;100.00
49611;BME280;35515;48.766;9.176;2022-11-18T07:53:07;96942.75;;;8.74;98.36
49611;BME280;35515;48.766;9.176;2022-11-18T07:55:33;96950.16;;;8.67;99.41
49611;BME280;35515;48.766;9.176;2022-11-18T07:58:00;96956.03;;;8.64;99.35
49611;BME280;35515;48.766;9.176;2022-11-18T08:00:26;96955.38;;;8.50;100.00
49611;BME280;35515;48.766;9.176;2022-11-18T08:02:53;96961.97;;;8.35;100.00
49611;BME280;35515;48.766;9.176;2022-11-18T08:05:19;96969.41;;;8.40;100.00
49611;BME280;35515;48.766;9.176;2022-11-18T08:07:46;96966.41;;;8.48;100.00
49611;BME280;35515;48.766;9.176;2022-11-18T08:10:14;96976.75;;;8.51;100.00
49611;BME280;35515;48.766;9.176;2022-11-18T08:12:41;96983.28;;;8.44;100.00
49611;BME280;35515;48.766;9.176;2022-11-18T08:15:08;96988.72;;;8.25;100.00
49611;BME280;35515;48.766;9.176;2022-11-18T08:17:35;96988.56;;;8.20;100.00
49611;BME280;35515;48.766;9.176;2022-11-18T08:20:01;96996.66;;;8.20;100.00
49611;BME280;35515;48.766;9.176;2022-11-18T08:22:28;96997.84;;;8.24;100.00
49611;BME280;35515;48.766;9.176;2022-11-18T08:24:54;97001.03;;;8.33;100.00
49611;BME280;35515;48.766;9.176;2022-11-18T08:27:22;97006.97;;;8.42;100.00
49611;BME280;35515;48.766;9.176;2022-11-18T08:29:49;97001.81;;;8.22;100.00
49611;BME280;35515;48.766;9.176;2022-11-18T08:32:15;97004.34;;;8.35;100.00
49611;BME280;35515;48.766;9.176;2022-11-18T08:34:42;97016.31;;;8.39;100.00
49611;BME280;35515;48.766;9.176;2022-11-18T08:37:09;97014.41;;;8.28;100.00
49611;BME280;35515;48.766;9.176;2022-11-18T08:39:35;97022.28;;;8.29;100.00
49611;BME280;35515;48.766;9.176;2022-11-18T08:42:02;97014.56;;;8.14;100.00
49611;BME280;35515;48.766;9.176;2022-11-18T08:44:30;97015.75;;;8.37;100.00
49611;BME280;35515;48.766;9.176;2022-11-18T08:46:58;97013.63;;;8.39;100.00
49611;BME280;35515;48.766;9.176;2022-11-18T08:49:25;97019.72;;;8.53;100.00
49611;BME280;35515;48.766;9.176;2022-11-18T08:51:52;97012.66;;;8.52;100.00
49611;BME280;35515;48.766;9.176;2022-11-18T08:54:18;97016.56;;;8.37;100.00
49611;BME280;35515;48.766;9.176;2022-11-18T08:56:45;97017.69;;;8.48;100.00
49611;BME280;35515;48.766;9.176;2022-11-18T08:59:12;97029.81;;;8.58;100.00
49611;BME280;35515;48.766;9.176;2022-11-18T09:01:40;97028.31;;;8.43;100.00
49611;BME280;35515;48.766;9.176;2022-11-18T09:04:08;97029.81;;;8.58;100.00
49611;BME280;35515;48.766;9.176;2022-11-18T09:06:35;97033.06;;;8.48;100.00
49611;BME280;35515;48.766;9.176;2022-11-18T09:09:02;97041.00;;;8.43;100.00
49611;BME280;35515;48.766;9.176;2022-11-18T09:11:29;97034.75;;;8.61;100.00
49611;BME280;35515;48.766;9.176;2022-11-18T09:13:57;97037.31;;;8.56;100.00
49611;BME280;35515;48.766;9.176;2022-11-18T09:16:25;97042.56;;;8.69;100.00
49611;BME280;35515;48.766;9.176;2022-11-18T09:18:54;97047.69;;;8.59;100.00
49611;BME280;35515;48.766;9.176;2022-11-18T09:21:21;97048.66;;;8.46;100.00
49611;BME280;35515;48.766;9.176;2022-11-18T09:23:48;97043.59;;;8.68;100.00
49611;BME280;35515;48.766;9.176;2022-11-18T09:26:16;97048.41;;;8.66;100.00
49611;BME280;35515;48.766;9.176;2022-11-18T09:28:45;97052.13;;;8.65;100.00
49611;BME280;35515;48.766;9.176;2022-11-18T09:31:14;97051.72;;;8.68;100.00
49611;BME280;35515;48.766;9.176;2022-11-18T09:33:40;97053.50;;;8.56;100.00
49611;BME280;35515;48.766;9.176;2022-11-18T09:36:17;97052.75;;;8.67;100.00
49611;BME280;35515;48.766;9.176;2022-11-18T09:38:45;97061.41;;;8.57;100.00
49611;BME280;35515;48.766;9.176;2022-11-18T09:41:20;97065.81;;;8.51;100.00
49611;BME280;35515;48.766;9.176;2022-11-18T09:44:00;97062.53;;;8.49;100.00
49611;BME280;35515;48.766;9.176;2022-11-18T09:46:34;97058.19;;;8.79;100.00
49611;BME280;35515;48.766;9.176;2022-11-18T09:49:10;97064.16;;;8.69;100.00
49611;BME280;35515;48.766;9.176;2022-11-18T09:51:43;97068.34;;;8.65;100.00
49611;BME280;35515;48.766;9.176;2022-11-18T09:54:14;97066.91;;;8.62;100.00
49611;BME280;35515;48.766;9.176;2022-11-18T09:56:46;97070.47;;;8.63;100.00
49611;BME280;35515;48.766;9.176;2022-11-18T10:01:49;97078.16;;;8.78;100.00
49611;BME280;35515;48.766;9.176;2022-11-18T10:04:18;97077.34;;;8.77;100.00
49611;BME280;35515;48.766;9.176;2022-11-18T10:06:47;97074.88;;;8.76;100.00
49611;BME280;35515;48.766;9.176;2022-11-18T10:09:33;97081.84;;;8.95;100.00
49611;BME280;35515;48.766;9.176;2022-11-18T10:12:16;97083.28;;;8.98;100.00
49611;BME280;35515;48.766;9.176;2022-11-18T10:14:54;97089.44;;;9.05;100.00
49611;BME280;35515;48.766;9.176;2022-11-18T10:17:33;97093.53;;;9.08;100.00
49611;BME280;35515;48.766;9.176;2022-11-18T10:20:11;97082.19;;;8.87;100.00
49611;BME280;35515;48.766;9.176;2022-11-18T10:22:47;97097.00;;;8.96;100.00
49611;BME280;35515;48.766;9.176;2022-11-18T10:25:16;97094.53;;;8.95;100.00
49611;BME280;35515;48.766;9.176;2022-11-18T10:27:45;97091.38;;;8.98;100.00
49611;BME280;35515;48.766;9.176;2022-11-18T10:30:14;97092.31;;;9.03;100.00
49611;BME280;35515;48.766;9.176;2022-11-18T10:32:55;97097.19;;;9.13;100.00
49611;BME280;35515;48.766;9.176;2022-11-18T10:35:23;97097.34;;;9.18;100.00
49611;BME280;35515;48.766;9.176;2022-11-18T10:38:01;97096.72;;;9.16;100.00
49611;BME280;35515;48.766;9.176;2022-11-18T10:40:29;97102.88;;;9.35;100.00
49611;BME280;35515;48.766;9.176;2022-11-18T10:42:56;97103.97;;;9.34;100.00
49611;BME280;35515;48.766;9.176;2022-11-18T10:45:25;97106.88;;;9.33;100.00
49611;BME280;35515;48.766;9.176;2022-11-18T10:47:58;97096.16;;;9.26;100.00
49611;BME280;35515;48.766;9.176;2022-11-18T10:50:31;97107.94;;;9.32;100.00
49611;BME280;35515;48.766;9.176;2022-11-18T10:53:00;97099.50;;;9.40;100.00
49611;BME280;35515;48.766;9.176;2022-11-18T10:55:27;97104.97;;;9.22;100.00
49611;BME280;35515;48.766;9.176;2022-11-18T10:57:57;97097.91;;;9.20;100.00
49611;BME280;35515;48.766;9.176;2022-11-18T11:00:46;97103.03;;;9.10;100.00
49611;BME280;35515;48.766;9.176;2022-11-18T11:03:32;97104.69;;;9.11;100.00
49611;BME280;35515;48.766;9.176;2022-11-18T11:06:22;97103.50;;;9.07;100.00
49611;BME280;35515;48.766;9.176;2022-11-18T11:08:56;97105.03;;;9.03;100.00
49611;BME280;35515;48.766;9.176;2022-11-18T11:11:26;97100.72;;;9.14;100.00
49611;BME280;35515;48.766;9.176;2022-11-18T11:14:03;97116.13;;;9.13;100.00
49611;BME280;35515;48.766;9.176;2022-11-18T11:16:36;97114.44;;;9.12;100.00
49611;BME280;35515;48.766;9.176;2022-11-18T11:19:08;97118.34;;;9.16;100.00
49611;BME280;35515;48.766;9.176;2022-11-18T11:21:36;97116.25;;;9.18;100.00
49611;BME280;35515;48.766;9.176;2022-11-18T11:24:09;97127.44;;;9.34;100.00
49611;BME280;35515;48.766;9.176;2022-11-18T11:26:42;97135.31;;;9.24;100.00
49611;BME280;35515;48.766;9.176;2022-11-18T11:29:20;97127.91;;;9.31;100.00
49611;BME280;35515;48.766;9.176;2022-11-18T11:31:55;97132.03;;;9.33;100.00
49611;BME280;35515;48.766;9.176;2022-11-18T11:34:27;97122.13;;;9.27;100.00
49611;BME280;35515;48.766;9.176;2022-11-18T11:37:02;97131.91;;;9.28;100.00
49611;BME280;35515;48.766;9.176;2022-11-18T11:39:43;97127.19;;;9.24;100.00
49611;BME280;35515;48.766;9.176;2022-11-18T11:42:20;97123.56;;;9.30;100.00
49611;BME280;35515;48.766;9.176;2022-11-18T11:44:59;97128.75;;;9.43;100.00
49611;BME280;35515;48.766;9.176;2022-11-18T11:47:42;97129.16;;;9.59;100.00
49611;BME280;35515;48.766;9.176;2022-11-18T11:50:22;97130.78;;;9.48;100.00
49611;BME280;35515;48.766;9.176;2022-11-18T11:53:06;97136.66;;;9.57;100.00
49611;BME280;35515;48.766;9.176;2022-11-18T11:55:50;97144.84;;;9.38;100.00
49611;BME280;35515;48.766;9.176;2022-11-18T11:58:33;97138.38;;;9.39;100.00
49611;BME280;35515;48.766;9.176;2022-11-18T12:01:15;97138.53;;;9.44;100.00
49611;BME280;35515;48.766;9.176;2022-11-18T12:03:45;97140.31;;;9.50;100.00
49611;BME280;35515;48.766;9.176;2022-11-18T12:06:13;97137.59;;;9.50;100.00
49611;BME280;35515;48.766;9.176;2022-11-18T12:08:49;97138.38;;;9.39;99.41
49611;BME280;35515;48.766;9.176;2022-11-18T12:11:26;97138.47;;;9.32;99.88
49611;BME280;35515;48.766;9.176;2022-11-18T12:14:00;97137.91;;;9.42;100.00
49611;BME280;35515;48.766;9.176;2022-11-18T12:16:32;97138.41;;;9.51;99.21
49611;BME280;35515;48.766;9.176;2022-11-18T12:19:07;97146.34;;;9.34;99.99
49611;BME280;35515;48.766;9.176;2022-11-18T12:21:53;97148.63;;;9.37;98.51
49611;BME280;35515;48.766;9.176;2022-11-18T12:24:34;97156.81;;;9.30;98.87
49611;BME280;35515;48.766;9.176;2022-11-18T12:27:03;97152.31;;;9.24;99.83
49611;BME280;35515;48.766;9.176;2022-11-18T12:29:35;97160.19;;;9.26;98.71
49611;BME280;35515;48.766;9.176;2022-11-18T12:32:24;97162.22;;;9.30;96.43
49611;BME280;35515;48.766;9.176;2022-11-18T12:34:56;97159.66;;;9.05;97.89
49611;BME280;35515;48.766;9.176;2022-11-18T12:37:43;97164.53;;;8.96;99.76
49611;BME280;35515;48.766;9.176;2022-11-18T12:40:31;97159.19;;;9.08;100.00
49611;BME280;35515;48.766;9.176;2022-11-18T12:42:59;97169.13;;;8.96;100.00
49611;BME280;35515;48.766;9.176;2022-11-18T12:45:54;97164.31;;;8.98;100.00
49611;BME280;35515;48.766;9.176;2022-11-18T12:48:31;97166.78;;;8.99;100.00
49611;BME280;35515;48.766;9.176;2022-11-18T12:50:59;97163.31;;;9.11;100.00
49611;BME280;35515;48.766;9.176;2022-11-18T12:53:32;97155.78;;;9.13;100.00
49611;BME280;35515;48.766;9.176;2022-11-18T12:56:19;97166.84;;;9.11;100.00
49611;BME280;35515;48.766;9.176;2022-11-18T12:58:50;97170.81;;;9.09;100.00
49611;BME280;35515;48.766;9.176;2022-11-18T13:01:19;97166.84;;;9.11;100.00
49611;BME280;35515;48.766;9.176;2022-11-18T13:03:48;97168.25;;;9.14;100.00
49611;BME280;35515;48.766;9.176;2022-11-18T13:06:23;97172.66;;;9.27;100.00
49611;BME280;35515;48.766;9.176;2022-11-18T13:08:52;97168.03;;;9.15;100.00
49611;BME280;35515;48.766;9.176;2022-11-18T13:11:21;97168.53;;;9.24;100.00
49611;BME280;35515;48.766;9.176;2022-11-18T13:14:14;97170.53;;;9.29;100.00
49611;BME280;35515;48.766;9.176;2022-11-18T13:16:59;97171.72;;;9.33;99.42
49611;BME280;35515;48.766;9.176;2022-11-18T13:19:53;97171.28;;;9.36;99.27
49611;BME280;35515;48.766;9.176;2022-11-18T13:22:21;97169.81;;;9.22;100.00
49611;BME280;35515;48.766;9.176;2022-11-18T13:25:21;97166.56;;;9.31;99.38
49611;BME280;35515;48.766;9.176;2022-11-18T13:27:51;97166.78;;;9.30;100.00
49611;BME280;35515;48.766;9.176;2022-11-18T13:30:24;97162.94;;;9.37;100.00
49611;BME280;35515;48.766;9.176;2022-11-18T13:32:52;97168.28;;;9.56;99.24